METAR Data
IDs: Format: Raw Decoded Include TAF

Data at: 2247 UTC 02 Aug 2021

CYYF 022212Z 35008KT 1 1/2SM FU BKN080 28/17 A3003 RMK FU6AC1 VIS W HIER SLP165 DENSITY ALT 2800FT